createdAt,value
2018-10-03T00:05:20.392Z,76.8
2018-10-03T00:21:58.616Z,77.2
2018-10-03T00:38:37.195Z,77.6
2018-10-03T00:55:15.257Z,78.0
2018-10-03T01:11:53.666Z,78.0
2018-10-03T01:28:32.286Z,78.0
2018-10-03T01:45:12.101Z,78.0
2018-10-03T02:01:49.988Z,78.0
2018-10-03T02:18:28.768Z,78.0
2018-10-03T02:35:07.651Z,78.4
2018-10-03T02:51:46.592Z,78.4
2018-10-03T03:08:25.402Z,78.8
2018-10-03T03:25:04.485Z,78.4
2018-10-03T03:41:43.527Z,78.4
2018-10-03T03:58:22.632Z,78.4
2018-10-03T04:15:01.721Z,78.4
2018-10-03T04:31:40.845Z,78.4
2018-10-03T04:48:19.795Z,78.8
2018-10-03T05:04:58.511Z,78.8
2018-10-03T05:21:37.159Z,78.8
2018-10-03T05:38:15.845Z,79.2
2018-10-03T05:54:54.560Z,79.6
2018-10-03T06:11:32.889Z,79.6
2018-10-03T06:28:11.639Z,79.2
2018-10-03T06:44:50.744Z,78.4
2018-10-03T07:01:30.174Z,78.0
2018-10-03T07:18:09.888Z,77.6
2018-10-03T07:34:50.199Z,76.4
2018-10-03T07:48:10.340Z,75.6
2018-10-03T08:04:51.300Z,74.8
2018-10-03T08:21:32.383Z,73.6
2018-10-03T08:38:13.489Z,72.0
2018-10-03T08:54:54.504Z,71.2
2018-10-03T09:04:55.342Z,70.0
2018-10-03T09:14:56.286Z,68.0
2018-10-03T09:31:37.894Z,67.2
2018-10-03T09:48:19.818Z,65.2
2018-10-03T10:05:02.108Z,64.0
2018-10-03T10:21:44.572Z,63.2
2018-10-03T10:38:27.364Z,61.6
2018-10-03T10:41:47.964Z,59.2
2018-10-03T10:58:30.985Z,58.8
2018-10-03T11:15:14.341Z,58.0
2018-10-03T11:31:57.934Z,59.2
2018-10-03T11:41:59.898Z,57.2
2018-10-03T11:58:43.621Z,56.0
2018-10-03T12:15:26.912Z,55.6
2018-10-03T12:32:10.488Z,54.4
2018-10-03T12:48:53.403Z,52.0
2018-10-03T12:58:55.547Z,52.8
2018-10-03T13:15:39.656Z,51.6
2018-10-03T13:32:25.255Z,51.6
2018-10-03T13:49:07.092Z,51.6
2018-10-03T14:05:50.462Z,50.8
2018-10-03T14:12:32.827Z,50.4
2018-10-03T14:29:15.421Z,49.6
2018-10-03T14:45:59.988Z,49.2
2018-10-03T14:56:02.138Z,50.0
2018-10-03T15:12:44.971Z,51.2
2018-10-03T15:29:27.882Z,51.6
2018-10-03T15:46:10.422Z,52.4
2018-10-03T16:02:53.559Z,52.8
2018-10-03T16:19:35.296Z,53.6
2018-10-03T16:36:16.867Z,54.4
2018-10-03T16:52:59.085Z,54.8
2018-10-03T17:09:42.413Z,55.6
2018-10-03T17:26:23.497Z,56.0
2018-10-03T17:43:05.045Z,56.8
2018-10-03T17:59:45.929Z,57.6
2018-10-03T18:16:27.147Z,58.4
2018-10-03T18:33:09.204Z,59.2
2018-10-03T18:49:52.783Z,60.0
2018-10-03T19:06:33.550Z,60.4
2018-10-03T19:19:52.231Z,61.2
2018-10-03T19:36:33.256Z,62.0
2018-10-03T19:53:11.418Z,62.8
2018-10-03T20:09:51.100Z,63.6
2018-10-03T20:26:30.988Z,64.4
2018-10-03T20:43:11.283Z,65.2
2018-10-03T20:59:50.123Z,65.6
2018-10-03T21:16:31.281Z,66.4
2018-10-03T21:33:09.628Z,66.4
2018-10-03T21:49:49.098Z,67.2
2018-10-03T22:06:27.528Z,68.0
2018-10-03T22:23:06.966Z,68.8
2018-10-03T22:39:45.605Z,69.2
2018-10-03T22:56:24.334Z,69.2
2018-10-03T23:13:04.081Z,69.6
2018-10-03T23:29:41.335Z,69.6
2018-10-03T23:46:19.392Z,70.0
